createdAt,value
2018-06-24T00:00:50.909Z,33.3
2018-06-24T00:01:53.071Z,33.2
2018-06-24T00:02:55.504Z,33.2
2018-06-24T00:03:57.387Z,33.3
2018-06-24T00:04:59.565Z,33.3
2018-06-24T00:06:02.016Z,33.2
2018-06-24T00:07:04.451Z,33.4
2018-06-24T00:08:06.897Z,33.2
2018-06-24T00:09:09.328Z,33.2
2018-06-24T00:10:11.780Z,33.3
2018-06-24T00:11:14.213Z,33.4
2018-06-24T00:12:16.655Z,33.3
2018-06-24T00:13:18.809Z,33.3
2018-06-24T00:14:21.018Z,33.3
2018-06-24T00:15:22.968Z,33.3
2018-06-24T00:16:25.427Z,33.3
2018-06-24T00:17:27.577Z,33.4
2018-06-24T00:18:30.016Z,33.2
2018-06-24T00:19:32.450Z,33.2
2018-06-24T00:20:34.893Z,33.2
2018-06-24T00:21:37.325Z,33.2
2018-06-24T00:22:39.766Z,33.4
2018-06-24T00:23:42.241Z,33.4
2018-06-24T00:24:44.396Z,33.4
2018-06-24T00:25:46.834Z,33.3
2018-06-24T00:26:48.991Z,33.4
2018-06-24T00:27:51.130Z,33.3
2018-06-24T00:28:53.564Z,33.4
2018-06-24T00:29:55.740Z,33.2
2018-06-24T00:30:58.170Z,33.4
2018-06-24T00:32:00.606Z,33.3
2018-06-24T00:33:03.048Z,33.4
2018-06-24T00:34:05.516Z,33.3
2018-06-24T00:35:07.679Z,33.5
2018-06-24T00:36:10.113Z,33.3
2018-06-24T00:37:12.622Z,33.2
2018-06-24T00:38:15.430Z,33.3
2018-06-24T00:39:17.595Z,33.4
2018-06-24T00:40:20.027Z,33.3
2018-06-24T00:41:22.456Z,33.3
2018-06-24T00:42:24.892Z,33.4
2018-06-24T00:43:27.334Z,33.2
2018-06-24T00:44:29.783Z,33.4
2018-06-24T00:45:32.220Z,33.4
2018-06-24T00:46:34.662Z,33.4
2018-06-24T00:47:37.088Z,33.4
2018-06-24T00:48:39.227Z,33.3
2018-06-24T00:49:41.676Z,33.4
2018-06-24T00:50:43.838Z,33.4
2018-06-24T00:51:46.269Z,33.3
2018-06-24T00:52:48.438Z,33.4
2018-06-24T00:53:50.877Z,33.5
2018-06-24T00:54:53.324Z,33.3
2018-06-24T00:55:55.773Z,33.4
2018-06-24T00:56:58.208Z,33.4
2018-06-24T00:58:00.648Z,33.3
2018-06-24T00:59:03.084Z,33.4
2018-06-24T01:00:05.508Z,33.4
2018-06-24T01:01:07.945Z,33.4
2018-06-24T01:02:10.377Z,33.5
2018-06-24T01:03:12.542Z,33.5
2018-06-24T01:04:14.979Z,33.4
2018-06-24T01:05:17.139Z,33.5
2018-06-24T01:06:19.578Z,33.5
2018-06-24T01:07:22.057Z,33.4
2018-06-24T01:08:24.489Z,33.4
2018-06-24T01:09:26.930Z,33.5
2018-06-24T01:10:29.378Z,33.5
2018-06-24T01:11:31.812Z,33.4
2018-06-24T01:12:34.261Z,33.5
2018-06-24T01:13:36.700Z,33.5
2018-06-24T01:14:38.870Z,33.5
2018-06-24T01:15:41.302Z,33.5
2018-06-24T01:16:43.749Z,33.5
2018-06-24T01:17:46.180Z,33.5
2018-06-24T01:18:48.609Z,33.5
2018-06-24T01:19:51.038Z,33.4
2018-06-24T01:20:53.479Z,33.5
2018-06-24T01:21:55.911Z,33.4
2018-06-24T01:22:57.801Z,33.5
2018-06-24T01:24:00.232Z,33.4
2018-06-24T01:25:02.666Z,33.5
2018-06-24T01:26:05.094Z,33.6
2018-06-24T01:27:07.537Z,33.5
2018-06-24T01:28:09.977Z,33.5
2018-06-24T01:29:12.419Z,33.5
2018-06-24T01:30:14.849Z,33.5
2018-06-24T01:31:17.285Z,33.5
2018-06-24T01:32:19.731Z,33.5
2018-06-24T01:33:22.178Z,33.5
2018-06-24T01:34:24.629Z,33.5
2018-06-24T01:35:27.068Z,33.4
2018-06-24T01:36:29.514Z,33.5
2018-06-24T01:37:31.944Z,33.5
2018-06-24T01:38:34.389Z,33.5
2018-06-24T01:39:36.822Z,33.5
2018-06-24T01:40:39.260Z,33.5
2018-06-24T01:41:41.696Z,33.5
2018-06-24T01:42:43.879Z,33.5
2018-06-24T01:43:46.329Z,33.5
2018-06-24T01:44:48.757Z,33.6
2018-06-24T01:45:51.199Z,33.5
2018-06-24T01:46:53.680Z,33.5
2018-06-24T01:47:56.122Z,33.5
2018-06-24T01:48:58.560Z,33.5
2018-06-24T01:50:00.991Z,33.5
2018-06-24T01:51:03.443Z,33.5
2018-06-24T01:52:05.873Z,33.6
2018-06-24T01:53:08.320Z,33.5
2018-06-24T01:54:10.763Z,33.5
2018-06-24T01:55:13.188Z,33.6
2018-06-24T01:56:15.626Z,33.5
2018-06-24T01:57:18.057Z,33.5
2018-06-24T01:58:20.501Z,33.5
2018-06-24T01:59:22.929Z,33.5
2018-06-24T02:00:25.370Z,33.5
2018-06-24T02:01:27.800Z,33.6
2018-06-24T02:02:30.243Z,33.5
2018-06-24T02:03:32.690Z,33.5
2018-06-24T02:04:35.125Z,33.5
2018-06-24T02:05:37.557Z,33.5
2018-06-24T02:06:39.714Z,33.5
2018-06-24T02:07:41.887Z,33.7
2018-06-24T02:08:44.333Z,33.6
2018-06-24T02:09:46.761Z,33.6
2018-06-24T02:10:48.928Z,33.6
2018-06-24T02:11:51.098Z,33.5
2018-06-24T02:12:53.267Z,33.5
2018-06-24T02:13:55.704Z,33.5
2018-06-24T02:14:58.136Z,33.5
2018-06-24T02:16:00.589Z,33.6
2018-06-24T02:17:03.020Z,33.6
2018-06-24T02:18:05.468Z,33.5
2018-06-24T02:19:07.907Z,33.6
2018-06-24T02:20:10.341Z,33.6
2018-06-24T02:21:12.788Z,33.5
2018-06-24T02:22:15.218Z,33.6
2018-06-24T02:23:17.651Z,33.7
2018-06-24T02:24:20.083Z,33.7
2018-06-24T02:25:22.516Z,33.6
2018-06-24T02:26:24.951Z,33.5
2018-06-24T02:27:27.389Z,33.6
2018-06-24T02:28:29.840Z,33.6
2018-06-24T02:29:31.997Z,33.6
2018-06-24T02:30:34.423Z,33.5
2018-06-24T02:31:36.581Z,33.6
2018-06-24T02:32:38.725Z,33.6
2018-06-24T02:33:40.888Z,33.6
2018-06-24T02:34:43.318Z,33.5
2018-06-24T02:35:45.760Z,33.5
2018-06-24T02:36:48.196Z,33.7
2018-06-24T02:37:50.343Z,33.7
2018-06-24T02:38:52.780Z,33.7
2018-06-24T02:39:55.220Z,33.5
2018-06-24T02:40:57.652Z,33.6
2018-06-24T02:42:00.091Z,33.6
2018-06-24T02:43:02.532Z,33.6
2018-06-24T02:44:05.014Z,33.6
2018-06-24T02:45:07.449Z,33.6
2018-06-24T02:46:09.901Z,33.6
2018-06-24T02:47:11.770Z,33.6
2018-06-24T02:48:14.205Z,33.6
2018-06-24T02:49:16.640Z,33.7
2018-06-24T02:50:19.075Z,33.5
2018-06-24T02:51:21.510Z,33.6
2018-06-24T02:52:23.949Z,33.5
2018-06-24T02:53:26.390Z,33.6
2018-06-24T02:54:28.621Z,33.5
2018-06-24T02:55:31.069Z,33.5
2018-06-24T02:56:33.511Z,33.7
2018-06-24T02:57:35.684Z,33.6
2018-06-24T02:58:38.110Z,33.7
2018-06-24T02:59:40.563Z,33.7
2018-06-24T03:00:42.998Z,33.5
2018-06-24T03:01:45.449Z,33.6
2018-06-24T03:02:47.888Z,33.6
2018-06-24T03:03:49.780Z,33.6
2018-06-24T03:04:52.207Z,33.6
2018-06-24T03:05:54.646Z,33.6
2018-06-24T03:06:57.094Z,33.6
2018-06-24T03:07:59.529Z,33.6
2018-06-24T03:09:01.972Z,33.5
2018-06-24T03:10:04.400Z,33.6
2018-06-24T03:11:06.847Z,33.6
2018-06-24T03:12:09.810Z,33.6
2018-06-24T03:13:12.249Z,33.6
2018-06-24T03:14:14.705Z,33.6
2018-06-24T03:15:17.188Z,33.5
2018-06-24T03:16:19.073Z,33.6
2018-06-24T03:17:21.510Z,33.7
2018-06-24T03:18:23.948Z,33.5
2018-06-24T03:19:26.397Z,33.5
2018-06-24T03:20:28.568Z,33.6
2018-06-24T03:21:31.009Z,33.5
2018-06-24T03:22:33.445Z,33.6
2018-06-24T03:23:35.326Z,33.6
2018-06-24T03:24:37.758Z,33.5
2018-06-24T03:25:40.200Z,33.5
2018-06-24T03:26:42.640Z,33.6
2018-06-24T03:27:45.081Z,33.5
2018-06-24T03:28:47.509Z,33.5
2018-06-24T03:29:49.958Z,33.5
2018-06-24T03:30:52.395Z,33.6
2018-06-24T03:31:54.823Z,33.5
2018-06-24T03:32:56.999Z,33.5
2018-06-24T03:33:59.452Z,33.5
2018-06-24T03:35:01.618Z,33.5
2018-06-24T03:36:03.792Z,33.5
2018-06-24T03:37:06.227Z,33.5
2018-06-24T03:38:08.666Z,33.5
2018-06-24T03:39:11.100Z,33.5
2018-06-24T03:40:13.548Z,33.4
2018-06-24T03:41:15.989Z,33.5
2018-06-24T03:42:18.429Z,33.5
2018-06-24T03:43:20.876Z,33.4
2018-06-24T03:44:23.310Z,33.4
2018-06-24T03:45:25.756Z,33.5
2018-06-24T03:46:28.221Z,33.5
2018-06-24T03:47:30.382Z,33.5
2018-06-24T03:48:32.549Z,33.4
2018-06-24T03:49:34.981Z,33.4
2018-06-24T03:50:37.405Z,33.5
2018-06-24T03:51:39.848Z,33.4
2018-06-24T03:52:42.015Z,33.4
2018-06-24T03:53:44.151Z,33.3
2018-06-24T03:54:46.588Z,33.5
2018-06-24T03:55:49.019Z,33.4
2018-06-24T03:56:51.460Z,33.5
2018-06-24T03:57:53.897Z,33.4
2018-06-24T03:58:56.348Z,33.5
2018-06-24T03:59:58.772Z,33.4
2018-06-24T04:01:01.200Z,33.4
2018-06-24T04:02:03.642Z,33.4
2018-06-24T04:03:05.803Z,33.4
2018-06-24T04:04:08.228Z,33.4
2018-06-24T04:05:10.355Z,33.4
2018-06-24T04:06:12.790Z,33.3
2018-06-24T04:07:15.217Z,33.5
2018-06-24T04:08:17.395Z,33.4
2018-06-24T04:09:19.825Z,33.4
2018-06-24T04:10:22.285Z,33.4
2018-06-24T04:11:24.711Z,33.4
2018-06-24T04:12:27.157Z,33.3
2018-06-24T04:13:29.590Z,33.3
2018-06-24T04:14:31.748Z,33.4
2018-06-24T04:15:34.191Z,33.4
2018-06-24T04:16:36.350Z,33.4
2018-06-24T04:17:38.781Z,33.4
2018-06-24T04:18:41.232Z,33.4
2018-06-24T04:19:43.692Z,33.3
2018-06-24T04:20:45.854Z,33.3
2018-06-24T04:21:48.299Z,33.5
2018-06-24T04:22:50.752Z,33.3
2018-06-24T04:23:53.178Z,33.3
2018-06-24T04:24:55.611Z,33.4
2018-06-24T04:25:57.769Z,33.3
2018-06-24T04:26:59.929Z,33.3
2018-06-24T04:28:02.089Z,33.4
2018-06-24T04:29:04.539Z,33.3
2018-06-24T04:30:06.987Z,33.3
2018-06-24T04:31:09.417Z,33.4
2018-06-24T04:32:11.855Z,33.3
2018-06-24T04:33:14.020Z,33.2
2018-06-24T04:34:16.197Z,33.3
2018-06-24T04:35:18.635Z,33.4
2018-06-24T04:36:21.088Z,33.3
2018-06-24T04:37:23.261Z,33.2
2018-06-24T04:38:25.698Z,33.3
2018-06-24T04:39:28.125Z,33.2
2018-06-24T04:40:30.566Z,33.2
2018-06-24T04:41:32.720Z,33.2
2018-06-24T04:42:34.927Z,33.3
2018-06-24T04:43:36.821Z,33.4
2018-06-24T04:44:39.248Z,33.3
2018-06-24T04:45:41.409Z,33.3
2018-06-24T04:46:43.848Z,33.4
2018-06-24T04:47:46.271Z,33.3
2018-06-24T04:48:48.159Z,33.3
2018-06-24T04:49:50.594Z,33.4
2018-06-24T04:50:53.230Z,33.3
2018-06-24T04:51:55.665Z,33.1
2018-06-24T04:52:57.823Z,33.4
2018-06-24T04:54:00.249Z,33.3
2018-06-24T04:55:02.700Z,33.2
2018-06-24T04:56:05.154Z,33.2
2018-06-24T04:57:07.596Z,33.4
2018-06-24T04:58:10.028Z,33.3
2018-06-24T04:59:12.460Z,33.3
2018-06-24T05:00:14.913Z,33.3
2018-06-24T05:01:17.350Z,33.3
2018-06-24T05:02:19.789Z,33.3
2018-06-24T05:03:21.967Z,33.3
2018-06-24T05:04:24.438Z,33.2
2018-06-24T05:05:26.879Z,33.2
2018-06-24T05:06:29.400Z,33.2
2018-06-24T05:07:32.152Z,33.3
2018-06-24T05:08:34.590Z,33.3
2018-06-24T05:09:36.749Z,33.2
2018-06-24T05:10:39.190Z,33.3
2018-06-24T05:11:41.620Z,33.1
2018-06-24T05:12:44.069Z,33.2
2018-06-24T05:13:46.226Z,33.3
2018-06-24T05:14:48.657Z,33.3
2018-06-24T05:15:50.839Z,33.1
2018-06-24T05:16:53.281Z,33.1
2018-06-24T05:17:55.707Z,33.2
2018-06-24T05:18:58.152Z,33.2
2018-06-24T05:20:00.610Z,33.2
2018-06-24T05:21:03.044Z,33.3
2018-06-24T05:22:05.476Z,33.1
2018-06-24T05:23:07.917Z,33.2
2018-06-24T05:24:10.367Z,33.2
2018-06-24T05:25:12.808Z,33.1
2018-06-24T05:26:15.245Z,33.2
2018-06-24T05:27:17.688Z,33.2
2018-06-24T05:28:20.137Z,33.2
2018-06-24T05:29:22.322Z,33.1
2018-06-24T05:30:24.759Z,33.1
2018-06-24T05:31:27.199Z,33.1
2018-06-24T05:32:29.389Z,33.1
2018-06-24T05:33:31.829Z,33.2
2018-06-24T05:34:34.274Z,33.1
2018-06-24T05:35:36.704Z,33.3
2018-06-24T05:36:38.856Z,33.3
2018-06-24T05:37:41.326Z,33.2
2018-06-24T05:38:43.789Z,33.2
2018-06-24T05:39:46.232Z,33.1
2018-06-24T05:40:48.376Z,33.2
2018-06-24T05:41:50.807Z,33
2018-06-24T05:42:53.279Z,33.1
2018-06-24T05:43:55.435Z,33
2018-06-24T05:44:57.595Z,33.2
2018-06-24T05:46:00.042Z,33.2
2018-06-24T05:47:02.473Z,33
2018-06-24T05:48:04.909Z,33.2
2018-06-24T05:49:07.358Z,33.1
2018-06-24T05:50:09.803Z,33.1
2018-06-24T05:51:11.951Z,33.1
2018-06-24T05:52:14.409Z,33.1
2018-06-24T05:53:16.846Z,33
2018-06-24T05:54:19.350Z,33
2018-06-24T05:55:21.729Z,33.1
2018-06-24T05:56:38.542Z,33.1
2018-06-24T05:57:40.976Z,33.1
2018-06-24T05:58:43.419Z,32.9
2018-06-24T05:59:45.879Z,32.9
2018-06-24T06:00:48.319Z,33
2018-06-24T06:01:50.785Z,33.1
2018-06-24T06:02:52.674Z,33
2018-06-24T06:03:55.212Z,33
2018-06-24T06:04:57.664Z,33
2018-06-24T06:06:00.100Z,33.1
2018-06-24T06:07:02.279Z,33.1
2018-06-24T06:08:04.709Z,32.9
2018-06-24T06:09:07.148Z,33.1
2018-06-24T06:10:09.834Z,33
2018-06-24T06:11:12.628Z,33.1
2018-06-24T06:12:15.067Z,33
2018-06-24T06:13:17.501Z,33.1
2018-06-24T06:14:19.940Z,33.1
2018-06-24T06:15:22.109Z,33
2018-06-24T06:16:24.558Z,33
2018-06-24T06:17:26.990Z,33.1
2018-06-24T06:18:29.424Z,33
2018-06-24T06:19:31.566Z,33.1
2018-06-24T06:20:34.008Z,32.9
2018-06-24T06:21:36.448Z,33
2018-06-24T06:22:38.929Z,33
2018-06-24T06:23:41.368Z,33
2018-06-24T06:24:43.792Z,33
2018-06-24T06:25:46.224Z,33
2018-06-24T06:26:48.379Z,32.9
2018-06-24T06:27:50.840Z,33
2018-06-24T06:28:53.265Z,33
2018-06-24T06:29:55.710Z,33.1
2018-06-24T06:30:58.146Z,33
2018-06-24T06:32:00.587Z,33
2018-06-24T06:33:03.022Z,33
2018-06-24T06:34:05.469Z,33
2018-06-24T06:35:07.620Z,33.1
2018-06-24T06:36:09.755Z,33.1
2018-06-24T06:37:12.199Z,33
2018-06-24T06:38:14.637Z,33
2018-06-24T06:39:17.069Z,32.9
2018-06-24T06:40:19.500Z,33
2018-06-24T06:41:21.670Z,33
2018-06-24T06:42:24.118Z,33
2018-06-24T06:43:26.258Z,33
2018-06-24T06:44:28.419Z,33
2018-06-24T06:45:31.238Z,33
2018-06-24T06:46:34.496Z,33
2018-06-24T06:47:36.939Z,32.9
2018-06-24T06:48:39.382Z,33
2018-06-24T06:49:41.821Z,32.9
2018-06-24T06:50:43.977Z,32.9
2018-06-24T06:51:46.407Z,32.9
2018-06-24T06:52:48.577Z,33
2018-06-24T06:53:50.737Z,33
2018-06-24T06:54:53.190Z,33
2018-06-24T06:55:55.623Z,33
2018-06-24T06:56:58.058Z,33.1
2018-06-24T06:58:00.506Z,33
2018-06-24T06:59:02.949Z,32.8
2018-06-24T07:00:05.445Z,33
2018-06-24T07:01:07.980Z,32.8
2018-06-24T07:02:10.433Z,33
2018-06-24T07:03:12.880Z,32.9
2018-06-24T07:04:15.310Z,33
2018-06-24T07:05:17.742Z,33
2018-06-24T07:06:19.900Z,33
2018-06-24T07:07:22.349Z,33
2018-06-24T07:08:24.782Z,33
2018-06-24T07:09:27.219Z,33
2018-06-24T07:10:29.447Z,33
2018-06-24T07:11:31.929Z,33.1
2018-06-24T07:12:34.150Z,33
2018-06-24T07:13:36.647Z,33.1
2018-06-24T07:14:39.105Z,33
2018-06-24T07:15:41.563Z,32.9
2018-06-24T07:16:43.999Z,32.9
2018-06-24T07:17:46.429Z,33
2018-06-24T07:18:48.868Z,33
2018-06-24T07:19:51.309Z,33
2018-06-24T07:20:53.742Z,33
2018-06-24T07:21:56.183Z,33.1
2018-06-24T07:22:58.622Z,33
2018-06-24T07:24:01.069Z,33
2018-06-24T07:25:03.510Z,33
2018-06-24T07:26:05.971Z,33.1
2018-06-24T07:27:08.410Z,32.9
2018-06-24T07:28:10.846Z,33.1
2018-06-24T07:29:12.998Z,33.1
2018-06-24T07:30:15.449Z,33.1
2018-06-24T07:31:17.878Z,33
2018-06-24T07:32:20.320Z,33
2018-06-24T07:33:22.895Z,33.1
2018-06-24T07:34:25.629Z,33
2018-06-24T07:35:28.073Z,33.1
2018-06-24T07:36:30.535Z,33.1
2018-06-24T07:37:32.980Z,33.1
2018-06-24T07:38:35.307Z,33.1
2018-06-24T07:39:38.046Z,33
2018-06-24T07:40:40.492Z,33
2018-06-24T07:41:42.929Z,33.1
2018-06-24T07:42:45.373Z,32.9
2018-06-24T07:43:47.559Z,33.1
2018-06-24T07:44:50.002Z,32.9
2018-06-24T07:45:52.436Z,33.1
2018-06-24T07:46:54.592Z,33
2018-06-24T07:47:57.025Z,33
2018-06-24T07:48:59.472Z,33.1
2018-06-24T07:50:01.909Z,33
2018-06-24T07:51:04.364Z,33
2018-06-24T07:52:06.905Z,33
2018-06-24T07:53:09.354Z,33.1
2018-06-24T07:54:11.819Z,33.2
2018-06-24T07:55:14.244Z,33
2018-06-24T07:56:16.686Z,33
2018-06-24T07:57:18.862Z,33
2018-06-24T07:58:21.388Z,33.1
2018-06-24T07:59:23.839Z,33
2018-06-24T08:00:26.299Z,33.2
2018-06-24T08:01:28.738Z,33
2018-06-24T08:02:31.196Z,33.1
2018-06-24T08:03:33.354Z,33
2018-06-24T08:04:35.824Z,33
2018-06-24T08:05:38.258Z,32.9
2018-06-24T08:06:40.697Z,32.9
2018-06-24T08:07:42.891Z,33
2018-06-24T08:08:45.332Z,33
2018-06-24T08:09:47.475Z,33
2018-06-24T08:10:49.915Z,33.1
2018-06-24T08:11:52.351Z,33
2018-06-24T08:12:54.226Z,33.1
2018-06-24T08:13:56.670Z,32.9
2018-06-24T08:14:59.107Z,33
2018-06-24T08:16:01.556Z,33.1
2018-06-24T08:17:03.989Z,33
2018-06-24T08:18:06.437Z,33
2018-06-24T08:19:08.869Z,33
2018-06-24T08:20:11.311Z,33.2
2018-06-24T08:21:13.447Z,33.1
2018-06-24T08:22:15.878Z,33.1
2018-06-24T08:23:18.308Z,33.1
2018-06-24T08:24:20.739Z,33
2018-06-24T08:25:23.175Z,33
2018-06-24T08:26:25.625Z,33.1
2018-06-24T08:27:28.065Z,32.9
2018-06-24T08:28:30.497Z,33.1
2018-06-24T08:29:32.663Z,33
2018-06-24T08:30:35.111Z,33
2018-06-24T08:31:37.718Z,33
2018-06-24T08:32:40.436Z,33
2018-06-24T08:33:42.906Z,33
2018-06-24T08:34:45.430Z,33
2018-06-24T08:35:47.865Z,33
2018-06-24T08:36:50.307Z,33
2018-06-24T08:37:52.469Z,33
2018-06-24T08:38:54.651Z,32.9
2018-06-24T08:39:56.900Z,33
2018-06-24T08:40:59.342Z,33.1
2018-06-24T08:42:01.830Z,33.1
2018-06-24T08:43:04.260Z,32.9
2018-06-24T08:44:06.694Z,33
2018-06-24T08:45:09.127Z,33
2018-06-24T08:46:11.557Z,33.1
2018-06-24T08:47:14.018Z,33
2018-06-24T08:48:16.209Z,33.1
2018-06-24T08:49:18.640Z,33.1
2018-06-24T08:50:21.073Z,33.1
2018-06-24T08:51:23.502Z,33
2018-06-24T08:52:25.951Z,33.1
2018-06-24T08:53:28.108Z,33
2018-06-24T08:54:30.549Z,33.1
2018-06-24T08:55:32.987Z,33.1
2018-06-24T08:56:35.430Z,32.9
2018-06-24T08:57:37.610Z,33
2018-06-24T08:58:39.784Z,33
2018-06-24T08:59:42.227Z,33
2018-06-24T09:00:44.845Z,33.1
2018-06-24T09:01:47.387Z,33
2018-06-24T09:02:49.829Z,33.1
2018-06-24T09:03:52.275Z,33.1
2018-06-24T09:04:54.445Z,33
2018-06-24T09:05:56.891Z,32.9
2018-06-24T09:06:59.055Z,33.1
2018-06-24T09:08:01.533Z,33
2018-06-24T09:09:04.116Z,33
2018-06-24T09:10:06.551Z,33
2018-06-24T09:11:08.984Z,33
2018-06-24T09:12:11.421Z,33
2018-06-24T09:13:13.852Z,33
2018-06-24T09:14:16.361Z,33.1
2018-06-24T09:15:18.893Z,33.1
2018-06-24T09:16:21.311Z,33.1
2018-06-24T09:17:23.748Z,32.9
2018-06-24T09:18:26.218Z,33.1
2018-06-24T09:19:28.685Z,32.9
2018-06-24T09:20:31.125Z,33
2018-06-24T09:21:33.571Z,33
2018-06-24T09:22:35.709Z,33
2018-06-24T09:23:38.154Z,33.1
2018-06-24T09:24:40.588Z,33.1
2018-06-24T09:25:43.034Z,33
2018-06-24T09:26:45.461Z,33.1
2018-06-24T09:27:47.917Z,33.1
2018-06-24T09:28:50.364Z,32.9
2018-06-24T09:29:52.805Z,33
2018-06-24T09:30:55.512Z,33
2018-06-24T09:31:58.141Z,33
2018-06-24T09:33:00.573Z,32.9
2018-06-24T09:34:03.025Z,33.1
2018-06-24T09:35:05.479Z,33
2018-06-24T09:36:07.917Z,33.1
2018-06-24T09:37:10.356Z,33.1
2018-06-24T09:38:12.802Z,33
2018-06-24T09:39:15.257Z,32.9
2018-06-24T09:40:17.697Z,33
2018-06-24T09:41:20.121Z,33
2018-06-24T09:42:22.573Z,33
2018-06-24T09:43:24.734Z,33
2018-06-24T09:44:26.904Z,33
2018-06-24T09:45:29.354Z,33
2018-06-24T09:46:31.786Z,33
2018-06-24T09:47:34.236Z,33
2018-06-24T09:48:36.719Z,32.9
2018-06-24T09:49:39.172Z,33
2018-06-24T09:50:41.619Z,33
2018-06-24T09:51:44.063Z,33
2018-06-24T09:52:46.599Z,33.1
2018-06-24T09:53:48.832Z,33
2018-06-24T09:54:51.012Z,33
2018-06-24T09:55:53.470Z,33
2018-06-24T09:56:55.932Z,33
2018-06-24T09:57:58.381Z,33
2018-06-24T09:59:00.821Z,32.9
2018-06-24T10:00:02.984Z,32.9
2018-06-24T10:01:05.161Z,33
2018-06-24T10:02:07.615Z,32.9
2018-06-24T10:03:10.057Z,33.1
2018-06-24T10:04:12.489Z,33.1
2018-06-24T10:05:14.941Z,33
2018-06-24T10:06:17.382Z,33
2018-06-24T10:07:19.825Z,32.9
2018-06-24T10:08:22.281Z,33
2018-06-24T10:09:24.729Z,33.1
2018-06-24T10:10:27.171Z,33
2018-06-24T10:11:29.612Z,33
2018-06-24T10:12:32.041Z,33
2018-06-24T10:13:34.476Z,33
2018-06-24T10:14:36.918Z,32.9
2018-06-24T10:15:39.358Z,32.9
2018-06-24T10:16:41.800Z,32.9
2018-06-24T10:17:44.252Z,33
2018-06-24T10:18:46.761Z,33.1
2018-06-24T10:19:49.253Z,32.9
2018-06-24T10:20:51.754Z,33
2018-06-24T10:21:54.220Z,33
2018-06-24T10:22:56.679Z,32.9
2018-06-24T10:23:59.131Z,32.9
2018-06-24T10:25:01.584Z,33
2018-06-24T10:26:04.043Z,33
2018-06-24T10:27:06.670Z,33.1
2018-06-24T10:28:09.159Z,33.1
2018-06-24T10:29:11.597Z,32.9
2018-06-24T10:30:14.056Z,33
2018-06-24T10:31:16.224Z,33
2018-06-24T10:32:18.660Z,33.1
2018-06-24T10:33:21.110Z,33.1
2018-06-24T10:34:23.589Z,33
2018-06-24T10:35:26.033Z,33
2018-06-24T10:36:28.463Z,32.9
2018-06-24T10:37:30.929Z,33.1
2018-06-24T10:38:33.379Z,33
2018-06-24T10:39:35.818Z,33
2018-06-24T10:40:38.255Z,33
2018-06-24T10:41:40.702Z,32.9
2018-06-24T10:42:43.131Z,33
2018-06-24T10:43:45.591Z,32.9
2018-06-24T10:44:48.037Z,33
2018-06-24T10:45:50.478Z,33
2018-06-24T10:46:52.930Z,33
2018-06-24T10:47:55.099Z,32.9
2018-06-24T10:48:57.550Z,33
2018-06-24T10:49:59.989Z,33
2018-06-24T10:51:02.176Z,33.1
2018-06-24T10:52:04.639Z,33
2018-06-24T10:53:07.072Z,32.9
2018-06-24T10:54:09.511Z,32.8
2018-06-24T10:55:11.648Z,33
2018-06-24T10:56:14.091Z,33.1
2018-06-24T10:57:16.540Z,32.9
2018-06-24T10:58:18.991Z,32.9
2018-06-24T10:59:21.425Z,33.1
2018-06-24T11:00:23.625Z,32.9
2018-06-24T11:01:26.057Z,33
2018-06-24T11:02:28.500Z,33
2018-06-24T11:03:30.928Z,33
2018-06-24T11:04:33.380Z,33
2018-06-24T11:05:35.820Z,33.1
2018-06-24T11:06:38.251Z,33
2018-06-24T11:07:40.697Z,33
2018-06-24T11:08:43.133Z,32.9
2018-06-24T11:09:45.372Z,32.9
2018-06-24T11:10:47.619Z,33.1
2018-06-24T11:11:49.811Z,33
2018-06-24T11:12:51.980Z,32.9
2018-06-24T11:13:54.160Z,33.1
2018-06-24T11:14:56.341Z,32.8
2018-06-24T11:15:58.782Z,32.9
2018-06-24T11:17:01.221Z,33.1
2018-06-24T11:18:03.391Z,33
2018-06-24T11:19:05.831Z,33
2018-06-24T11:20:08.263Z,32.9
2018-06-24T11:21:10.435Z,33.1
2018-06-24T11:22:12.892Z,32.9
2018-06-24T11:23:15.056Z,33
2018-06-24T11:24:17.498Z,33
2018-06-24T11:25:19.938Z,32.9
2018-06-24T11:26:22.385Z,33
2018-06-24T11:27:24.570Z,33
2018-06-24T11:28:27.009Z,32.9
2018-06-24T11:29:29.464Z,33
2018-06-24T11:30:31.921Z,33
2018-06-24T11:31:34.359Z,33
2018-06-24T11:32:36.532Z,32.9
2018-06-24T11:33:38.961Z,33
2018-06-24T11:34:41.130Z,33
2018-06-24T11:35:43.588Z,32.8
2018-06-24T11:36:46.023Z,33
2018-06-24T11:37:48.460Z,33
2018-06-24T11:38:50.893Z,33
2018-06-24T11:39:53.329Z,33
2018-06-24T11:40:55.802Z,33
2018-06-24T11:41:57.973Z,33
2018-06-24T11:43:00.431Z,32.9
2018-06-24T11:44:02.887Z,33
2018-06-24T11:45:05.347Z,32.9
2018-06-24T11:46:07.783Z,32.9
2018-06-24T11:47:10.231Z,32.9
2018-06-24T11:48:12.664Z,33
2018-06-24T11:49:15.102Z,32.9
2018-06-24T11:50:17.265Z,32.9
2018-06-24T11:51:19.706Z,33
2018-06-24T11:52:22.135Z,33
2018-06-24T11:53:24.591Z,33
2018-06-24T11:54:27.051Z,32.9
2018-06-24T11:55:29.501Z,33
2018-06-24T11:56:31.938Z,32.9
2018-06-24T11:57:34.377Z,33
2018-06-24T11:58:36.820Z,32.9
2018-06-24T11:59:39.249Z,32.9
2018-06-24T12:00:41.710Z,33
2018-06-24T12:01:43.880Z,32.9
2018-06-24T12:02:46.561Z,33
2018-06-24T12:03:49.474Z,33
2018-06-24T12:04:51.664Z,33
2018-06-24T12:05:54.105Z,33.1
2018-06-24T12:06:56.730Z,32.9
2018-06-24T12:07:59.041Z,33
2018-06-24T12:09:01.481Z,32.8
2018-06-24T12:10:03.946Z,32.9
2018-06-24T12:11:06.383Z,32.9
2018-06-24T12:12:08.844Z,32.9
2018-06-24T12:13:11.286Z,32.9
2018-06-24T12:14:13.729Z,32.9
2018-06-24T12:15:16.184Z,33
2018-06-24T12:16:18.625Z,32.9
2018-06-24T12:17:21.091Z,32.9
2018-06-24T12:18:23.545Z,33
2018-06-24T12:19:25.981Z,33
2018-06-24T12:20:28.141Z,33
2018-06-24T12:21:30.619Z,33
2018-06-24T12:22:33.060Z,33.1
2018-06-24T12:23:35.499Z,33
2018-06-24T12:24:37.979Z,32.9
2018-06-24T12:25:40.420Z,33
2018-06-24T12:26:42.602Z,32.9
2018-06-24T12:27:45.050Z,32.9
2018-06-24T12:28:47.522Z,32.8
2018-06-24T12:29:49.990Z,32.9
2018-06-24T12:30:52.428Z,32.8
2018-06-24T12:31:54.873Z,32.9
2018-06-24T12:32:57.360Z,33
2018-06-24T12:33:59.802Z,33
2018-06-24T12:35:01.985Z,32.9
2018-06-24T12:36:04.144Z,33
2018-06-24T12:37:06.598Z,32.9
2018-06-24T12:38:09.037Z,33
2018-06-24T12:39:11.473Z,33
2018-06-24T12:40:13.941Z,32.9
2018-06-24T12:41:16.380Z,33
2018-06-24T12:42:18.833Z,33
2018-06-24T12:43:21.379Z,33
2018-06-24T12:44:23.974Z,33
2018-06-24T12:45:26.411Z,33
2018-06-24T12:46:28.591Z,32.9
2018-06-24T12:47:31.028Z,32.8
2018-06-24T12:48:33.486Z,33
2018-06-24T12:49:35.933Z,33
2018-06-24T12:50:38.373Z,32.9
2018-06-24T12:51:40.552Z,33
2018-06-24T12:52:43.060Z,32.9
2018-06-24T12:53:45.653Z,32.8
2018-06-24T12:54:48.105Z,32.9
2018-06-24T12:55:50.530Z,33
2018-06-24T12:56:52.971Z,33
2018-06-24T12:57:55.444Z,33
2018-06-24T12:58:58.215Z,33
2018-06-24T13:00:03.084Z,32.9
2018-06-24T13:01:07.952Z,32.9
2018-06-24T13:02:10.390Z,33
2018-06-24T13:03:12.860Z,33
2018-06-24T13:04:15.322Z,33.1
2018-06-24T13:05:17.787Z,33
2018-06-24T13:06:19.784Z,33.1
2018-06-24T13:07:22.233Z,32.9
2018-06-24T13:08:24.675Z,32.9
2018-06-24T13:09:27.124Z,33
2018-06-24T13:10:29.571Z,32.9
2018-06-24T13:11:32.012Z,32.9
2018-06-24T13:12:34.460Z,33.1
2018-06-24T13:13:36.918Z,33
2018-06-24T13:14:39.372Z,33
2018-06-24T13:15:41.826Z,32.9
2018-06-24T13:16:44.271Z,32.9
2018-06-24T13:17:46.463Z,33
2018-06-24T13:18:48.911Z,32.9
2018-06-24T13:19:51.381Z,33
2018-06-24T13:20:53.825Z,33
2018-06-24T13:21:56.264Z,33.1
2018-06-24T13:22:58.704Z,32.9
2018-06-24T13:24:01.146Z,33
2018-06-24T13:25:03.609Z,32.9
2018-06-24T13:26:06.061Z,32.9
2018-06-24T13:27:08.505Z,33
2018-06-24T13:28:10.949Z,32.9
2018-06-24T13:29:13.400Z,33
2018-06-24T13:30:15.852Z,33.1
2018-06-24T13:31:18.287Z,32.8
2018-06-24T13:32:20.749Z,33
2018-06-24T13:33:23.213Z,33
2018-06-24T13:34:25.371Z,33
2018-06-24T13:35:27.827Z,32.9
2018-06-24T13:36:29.971Z,32.9
2018-06-24T13:37:32.441Z,33
2018-06-24T13:38:34.924Z,32.9
2018-06-24T13:39:37.107Z,33
2018-06-24T13:40:39.294Z,33.1
2018-06-24T13:41:41.745Z,33
2018-06-24T13:42:44.172Z,33
2018-06-24T13:43:46.616Z,33.1
2018-06-24T13:44:49.072Z,33
2018-06-24T13:45:51.535Z,33
2018-06-24T13:46:53.989Z,32.9
2018-06-24T13:47:56.427Z,33
2018-06-24T13:48:58.879Z,33
2018-06-24T13:50:01.318Z,33
2018-06-24T13:51:03.770Z,32.9
2018-06-24T13:52:06.220Z,33
2018-06-24T13:53:08.412Z,33
2018-06-24T13:54:10.863Z,33
2018-06-24T13:55:13.313Z,33
2018-06-24T13:56:15.749Z,33
2018-06-24T13:57:17.657Z,33
2018-06-24T13:58:20.124Z,33.1
2018-06-24T13:59:22.564Z,33
2018-06-24T14:00:25.024Z,33
2018-06-24T14:01:27.461Z,33
2018-06-24T14:02:29.901Z,33.1
2018-06-24T14:03:32.102Z,33
2018-06-24T14:04:34.541Z,33
2018-06-24T14:05:36.985Z,33
2018-06-24T14:06:39.449Z,33
2018-06-24T14:07:41.872Z,33.1
2018-06-24T14:08:44.343Z,33
2018-06-24T14:09:46.487Z,33